CFE25Q LPFR-EGHI
Flight info
| Callsign | CFE25Q |
|---|---|
| Flight time | N/A |
| Altitude | 40000 |
| Route | PINEK DCT KORUL DCT KOLEK DCT FEJAC DCT JSY DCT REVTU UY110 ORIST Y110 THRED |
| Aircraft | E190/M-SDE3GILORVW/S |
Departure
| Time | N/A |
|---|---|
| Airport | Faro - Gago Coutinho International Airport (LPFR) |
Arrival
| Time | 2026-04-27 14:44 |
|---|---|
| Airport | Southampton Airport (EGHI) |
| Time | Latitude | Longitude | Altitude | Speed | Heading |
|---|---|---|---|---|---|
| 2026-04-27 14:18 | 48.69642 | -2.67312 | 40239 ft | 440 kts | 41° |
| 2026-04-27 14:18 | 48.74160 | -2.61042 | 40246 ft | 440 kts | 41° |
| 2026-04-27 14:18 | 48.76532 | -2.58145 | 40242 ft | 438 kts | 29° |
| 2026-04-27 14:19 | 48.79278 | -2.56198 | 40282 ft | 435 kts | 20° |
| 2026-04-27 14:19 | 48.84966 | -2.53124 | 40238 ft | 437 kts | 17° |
| 2026-04-27 14:20 | 48.90737 | -2.50193 | 40242 ft | 437 kts | 18° |
| 2026-04-27 14:20 | 48.96474 | -2.47085 | 40218 ft | 438 kts | 18° |
| 2026-04-27 14:20 | 48.99367 | -2.45505 | 39729 ft | 442 kts | 18° |
| 2026-04-27 14:21 | 49.02192 | -2.43986 | 39520 ft | 437 kts | 18° |
| 2026-04-27 14:21 | 49.05133 | -2.42428 | 38760 ft | 445 kts | 18° |
| 2026-04-27 14:21 | 49.08048 | -2.40906 | 38260 ft | 438 kts | 18° |
| 2026-04-27 14:21 | 49.10925 | -2.39391 | 37610 ft | 438 kts | 18° |
| 2026-04-27 14:22 | 49.13799 | -2.37860 | 37066 ft | 438 kts | 18° |
| 2026-04-27 14:22 | 49.16685 | -2.36313 | 36497 ft | 440 kts | 18° |
| 2026-04-27 14:22 | 49.19589 | -2.34753 | 35854 ft | 444 kts | 18° |
| 2026-04-27 14:22 | 49.22502 | -2.33191 | 35346 ft | 443 kts | 19° |
| 2026-04-27 14:23 | 49.25415 | -2.31628 | 34699 ft | 445 kts | 19° |
| 2026-04-27 14:23 | 49.28318 | -2.30070 | 34113 ft | 445 kts | 19° |
| 2026-04-27 14:23 | 49.31222 | -2.28505 | 33572 ft | 440 kts | 19° |
| 2026-04-27 14:23 | 49.34099 | -2.26946 | 32923 ft | 444 kts | 19° |
| 2026-04-27 14:24 | 49.37032 | -2.25356 | 32375 ft | 445 kts | 19° |
| 2026-04-27 14:24 | 49.39971 | -2.23761 | 31789 ft | 447 kts | 19° |
| 2026-04-27 14:24 | 49.42913 | -2.22160 | 31149 ft | 453 kts | 19° |
| 2026-04-27 14:24 | 49.45904 | -2.20530 | 30572 ft | 459 kts | 19° |
| 2026-04-27 14:25 | 49.48845 | -2.18929 | 29955 ft | 458 kts | 19° |
| 2026-04-27 14:25 | 49.51903 | -2.17255 | 29332 ft | 454 kts | 18° |
| 2026-04-27 14:25 | 49.54848 | -2.15634 | 28745 ft | 447 kts | 18° |
| 2026-04-27 14:25 | 49.57760 | -2.14032 | 28196 ft | 441 kts | 18° |
| 2026-04-27 14:26 | 49.60638 | -2.12448 | 27568 ft | 438 kts | 18° |
| 2026-04-27 14:26 | 49.63504 | -2.10869 | 26965 ft | 435 kts | 18° |
| 2026-04-27 14:26 | 49.66320 | -2.09317 | 26460 ft | 428 kts | 18° |
| 2026-04-27 14:26 | 49.69135 | -2.07760 | 25826 ft | 426 kts | 18° |
| 2026-04-27 14:27 | 49.71911 | -2.06220 | 25288 ft | 422 kts | 18° |
| 2026-04-27 14:27 | 49.74653 | -2.04695 | 24756 ft | 416 kts | 18° |
| 2026-04-27 14:27 | 49.77367 | -2.03184 | 24157 ft | 413 kts | 18° |
| 2026-04-27 14:27 | 49.80053 | -2.01690 | 23618 ft | 409 kts | 18° |
| 2026-04-27 14:28 | 49.82721 | -2.00203 | 23115 ft | 405 kts | 18° |
| 2026-04-27 14:28 | 49.85371 | -1.98721 | 22540 ft | 403 kts | 18° |
| 2026-04-27 14:28 | 49.87989 | -1.97253 | 22012 ft | 400 kts | 18° |
| 2026-04-27 14:28 | 49.90595 | -1.95789 | 21519 ft | 395 kts | 18° |
| 2026-04-27 14:29 | 49.93171 | -1.94339 | 20955 ft | 393 kts | 19° |
| 2026-04-27 14:29 | 49.95713 | -1.92906 | 20463 ft | 389 kts | 19° |
| 2026-04-27 14:29 | 49.98248 | -1.91480 | 19947 ft | 381 kts | 19° |
| 2026-04-27 14:29 | 50.00725 | -1.90085 | 19434 ft | 378 kts | 19° |
| 2026-04-27 14:30 | 50.03160 | -1.88708 | 18969 ft | 375 kts | 19° |
| 2026-04-27 14:30 | 50.05609 | -1.87318 | 18397 ft | 374 kts | 19° |
| 2026-04-27 14:30 | 50.08037 | -1.85937 | 17989 ft | 369 kts | 19° |
| 2026-04-27 14:30 | 50.10451 | -1.84562 | 17444 ft | 370 kts | 19° |
| 2026-04-27 14:31 | 50.12861 | -1.83189 | 16961 ft | 368 kts | 19° |
| 2026-04-27 14:31 | 50.15260 | -1.81820 | 16489 ft | 366 kts | 18° |
| 2026-04-27 14:31 | 50.17648 | -1.80458 | 15972 ft | 365 kts | 18° |
| 2026-04-27 14:31 | 50.20023 | -1.79103 | 15509 ft | 360 kts | 18° |
| 2026-04-27 14:32 | 50.22364 | -1.77762 | 15014 ft | 356 kts | 18° |
| 2026-04-27 14:32 | 50.24660 | -1.76444 | 14568 ft | 346 kts | 18° |
| 2026-04-27 14:32 | 50.26886 | -1.75163 | 14097 ft | 338 kts | 18° |
| 2026-04-27 14:32 | 50.29060 | -1.73912 | 13663 ft | 328 kts | 18° |
| 2026-04-27 14:33 | 50.31175 | -1.72693 | 13226 ft | 320 kts | 18° |
| 2026-04-27 14:33 | 50.33234 | -1.71505 | 12798 ft | 312 kts | 18° |
| 2026-04-27 14:33 | 50.35253 | -1.70339 | 12395 ft | 306 kts | 18° |
| 2026-04-27 14:33 | 50.37227 | -1.69199 | 11991 ft | 300 kts | 18° |
| 2026-04-27 14:34 | 50.39169 | -1.68075 | 11608 ft | 294 kts | 18° |
| 2026-04-27 14:34 | 50.41075 | -1.66972 | 11210 ft | 290 kts | 18° |
| 2026-04-27 14:34 | 50.42954 | -1.65882 | 10823 ft | 286 kts | 18° |
| 2026-04-27 14:34 | 50.44814 | -1.64803 | 10438 ft | 284 kts | 18° |
| 2026-04-27 14:35 | 50.46665 | -1.63727 | 10060 ft | 283 kts | 18° |
| 2026-04-27 14:35 | 50.48500 | -1.62658 | 9684 ft | 280 kts | 18° |
| 2026-04-27 14:35 | 50.50323 | -1.61597 | 9319 ft | 279 kts | 18° |
| 2026-04-27 14:35 | 50.52138 | -1.60540 | 8950 ft | 277 kts | 18° |
| 2026-04-27 14:36 | 50.53940 | -1.59486 | 8583 ft | 275 kts | 18° |
| 2026-04-27 14:36 | 50.55728 | -1.58440 | 8216 ft | 273 kts | 19° |
| 2026-04-27 14:36 | 50.57497 | -1.57403 | 7847 ft | 271 kts | 19° |
| 2026-04-27 14:36 | 50.59259 | -1.56371 | 7483 ft | 268 kts | 19° |
| 2026-04-27 14:37 | 50.60976 | -1.55365 | 7137 ft | 266 kts | 19° |
| 2026-04-27 14:37 | 50.62696 | -1.54355 | 6785 ft | 262 kts | 19° |
| 2026-04-27 14:37 | 50.64392 | -1.53359 | 6424 ft | 258 kts | 19° |
| 2026-04-27 14:37 | 50.66056 | -1.52380 | 6102 ft | 253 kts | 20° |
| 2026-04-27 14:38 | 50.67690 | -1.51415 | 5749 ft | 249 kts | 20° |
| 2026-04-27 14:38 | 50.69309 | -1.50461 | 5427 ft | 247 kts | 20° |
| 2026-04-27 14:38 | 50.70909 | -1.49516 | 5102 ft | 244 kts | 20° |
| 2026-04-27 14:38 | 50.72492 | -1.48581 | 4765 ft | 242 kts | 20° |
| 2026-04-27 14:39 | 50.74062 | -1.47653 | 4465 ft | 239 kts | 20° |
| 2026-04-27 14:39 | 50.75611 | -1.46736 | 4140 ft | 237 kts | 20° |
| 2026-04-27 14:39 | 50.77170 | -1.45812 | 3583 ft | 245 kts | 20° |
| 2026-04-27 14:39 | 50.78737 | -1.44867 | 3224 ft | 233 kts | 20° |
| 2026-04-27 14:40 | 50.80212 | -1.43988 | 2920 ft | 222 kts | 21° |
| 2026-04-27 14:40 | 50.81625 | -1.43184 | 2615 ft | 209 kts | 19° |
| 2026-04-27 14:40 | 50.82906 | -1.42469 | 2470 ft | 183 kts | 19° |
| 2026-04-27 14:40 | 50.84063 | -1.41850 | 2231 ft | 170 kts | 18° |
| 2026-04-27 14:41 | 50.85146 | -1.41227 | 1864 ft | 161 kts | 20° |
| 2026-04-27 14:41 | 50.86169 | -1.40618 | 1660 ft | 155 kts | 20° |
| 2026-04-27 14:41 | 50.87181 | -1.40048 | 1526 ft | 153 kts | 19° |
| 2026-04-27 14:41 | 50.88185 | -1.39520 | 1284 ft | 152 kts | 18° |
| 2026-04-27 14:42 | 50.88832 | -1.39159 | 1155 ft | 145 kts | 20° |
| 2026-04-27 14:42 | 50.90034 | -1.38426 | 866 ft | 135 kts | 19° |
| 2026-04-27 14:42 | 50.90901 | -1.37947 | 722 ft | 129 kts | 18° |
| 2026-04-27 14:42 | 50.91743 | -1.37494 | 539 ft | 126 kts | 17° |
| 2026-04-27 14:43 | 50.92568 | -1.37015 | 389 ft | 127 kts | 14° |
| 2026-04-27 14:43 | 50.93441 | -1.36572 | 262 ft | 133 kts | 19° |
| 2026-04-27 14:43 | 50.94029 | -1.36235 | 133 ft | 133 kts | 16° |
| 2026-04-27 14:43 | 50.94863 | -1.35790 | 39 ft | 110 kts | 15° |
| 2026-04-27 14:44 | 50.95309 | -1.35523 | 39 ft | 28 kts | 16° |
| 2026-04-27 14:44 | 50.95370 | -1.35483 | 40 ft | 0 kts | 111° |
| 2026-04-27 14:44 | 50.95361 | -1.35484 | 38 ft | 1 kts | 181° |
| 2026-04-27 14:44 | 50.95341 | -1.35498 | 38 ft | 7 kts | 203° |
| 2026-04-27 14:45 | 50.95273 | -1.35542 | 36 ft | 14 kts | 200° |
| 2026-04-27 14:45 | 50.95160 | -1.35606 | 38 ft | 20 kts | 198° |
| 2026-04-27 14:45 | 50.95040 | -1.35676 | 38 ft | 16 kts | 216° |
| 2026-04-27 14:45 | 50.95045 | -1.35831 | 38 ft | 14 kts | 290° |
| 2026-04-27 14:46 | 50.95007 | -1.35948 | 37 ft | 13 kts | 202° |
| 2026-04-27 14:46 | 50.94940 | -1.35985 | 36 ft | 11 kts | 199° |
| 2026-04-27 14:46 | 50.94899 | -1.36049 | 38 ft | 9 kts | 268° |
| 2026-04-27 14:46 | 50.94917 | -1.36156 | 36 ft | 11 kts | 289° |
| 2026-04-27 14:47 | 50.94947 | -1.36195 | 38 ft | 5 kts | 3° |
| 2026-04-27 14:47 | 50.94967 | -1.36188 | 38 ft | 2 kts | 16° |
| 2026-04-27 14:47 | 50.94985 | -1.36178 | 37 ft | 2 kts | 19° |